Time;durP1;ratioP1;P1;durP2;ratioP2;P2;SDS_P1;SDS_P2;PMS_P1;PMS_P2;Temp;Humidity;BMP_temperature;BMP_pressure;BME280_temperature;BME280_humidity;BME280_pressure;Samples;Min_cycle;Max_cycle;Signal;HPM_P1;HPM_P2
2022/04/19 00:01:12;;;;;;;;;;;;;;;;;;4970121;28;19941;-58
2022/04/19 00:03:37;;;;;;;;;;;;;;;;;;4971029;28;19917;-59
2022/04/19 00:06:03;;;;;;;;;;;;;;;;;;4966568;28;19972;-60
2022/04/19 00:08:28;;;;;;;;;;;;;;;;;;4971810;28;19921;-58
2022/04/19 00:10:53;;;;;;;;;;;;;;;;;;4968461;28;19956;-58
2022/04/19 00:13:19;;;;;;;;;;;;;;;;;;4950808;28;20376;-58
2022/04/19 00:15:44;;;;;;;;;;;;;;;;;;4970084;28;20380;-59
2022/04/19 00:18:11;;;;;;;;;;;;;;;;;;4971279;28;19933;-59
2022/04/19 00:20:39;;;;;;;;;;;;;;;;;;4967942;28;19921;-59
2022/04/19 00:23:05;;;;;;;;;;;;;;;;;;4965676;28;20339;-59
2022/04/19 00:25:30;;;;;;;;;;;;;;;;;;4970766;28;19914;-60
2022/04/19 00:27:56;;;;;;;;;;;;;;;;;;4971515;28;20244;-59
2022/04/19 00:30:21;;;;;;;;;;;;;;;;;;4967660;28;19914;-59
2022/04/19 00:32:46;;;;;;;;;;;;;;;;;;4968140;28;20194;-58
2022/04/19 00:35:12;;;;;;;;;;;;;;;;;;4970755;28;19910;-60
2022/04/19 00:37:38;;;;;;;;;;;;;;;;;;4967710;28;19914;-59
2022/04/19 00:40:07;;;;;;;;;;;;;;;;;;4964950;28;19997;-59
2022/04/19 00:42:33;;;;;;;;;;;;;;;;;;4970241;28;19910;-59
2022/04/19 00:45:00;;;;;;;;;;;;;;;;;;4951627;28;20372;-58
2022/04/19 00:47:25;;;;;;;;;;;;;;;;;;4973009;28;20170;-59
2022/04/19 00:49:51;;;;;;;;;;;;;;;;;;4967937;28;19976;-59
2022/04/19 00:52:17;;;;;;;;;;;;;;;;;;4970086;28;19945;-59
2022/04/19 00:54:43;;;;;;;;;;;;;;;;;;4969699;28;20249;-59
2022/04/19 00:57:08;;;;;;;;;;;;;;;;;;4969847;28;19910;-59
2022/04/19 00:59:34;;;;;;;;;;;;;;;;;;4970777;28;19910;-59
2022/04/19 01:02:00;;;;;;;;;;;;;;;;;;4965391;28;19914;-59
2022/04/19 01:04:25;;;;;;;;;;;;;;;;;;4969663;28;19917;-59
2022/04/19 01:06:50;;;;;;;;;;;;;;;;;;4971072;28;19979;-58
2022/04/19 01:09:16;;;;;;;;;;;;;;;;;;4969855;28;19921;-59
2022/04/19 01:14:26;;;;;;;;;;;;;;;;;;4970465;28;20327;-59
2022/04/19 01:16:52;;;;;;;;;;;;;;;;;;4967079;28;20236;-59
2022/04/19 01:19:17;;;;;;;;;;;;;;;;;;4970306;28;19914;-59
2022/04/19 01:21:46;;;;;;;;;;;;;;;;;;4968429;28;19914;-60
2022/04/19 01:24:15;;;;;;;;;;;;;;;;;;4963854;28;19937;-59
2022/04/19 01:26:41;;;;;;;;;;;;;;;;;;4964353;28;19929;-58
2022/04/19 01:29:06;;;;;;;;;;;;;;;;;;4970032;28;19914;-59
2022/04/19 01:31:32;;;;;;;;;;;;;;;;;;4968545;28;19918;-58
2022/04/19 01:33:57;;;;;;;;;;;;;;;;;;4970783;28;19914;-59
2022/04/19 01:36:22;;;;;;;;;;;;;;;;;;4973283;28;20335;-59
2022/04/19 01:38:48;;;;;;;;;;;;;;;;;;4968378;28;19933;-60
2022/04/19 01:41:13;;;;;;;;;;;;;;;;;;4970030;28;19910;-58
2022/04/19 01:43:39;;;;;;;;;;;;;;;;;;4972323;28;19920;-59
2022/04/19 01:46:04;;;;;;;;;;;;;;;;;;4972841;28;19910;-58
2022/04/19 01:48:29;;;;;;;;;;;;;;;;;;4971817;28;20421;-59
2022/04/19 01:50:55;;;;;;;;;;;;;;;;;;4972796;28;19945;-59
2022/04/19 01:53:20;;;;;;;;;;;;;;;;;;4971623;28;19933;-60
2022/04/19 01:55:46;;;;;;;;;;;;;;;;;;4966143;28;20000;-59
2022/04/19 01:58:12;;;;;;;;;;;;;;;;;;4973128;28;19914;-59
2022/04/19 02:00:37;;;;;;;;;;;;;;;;;;4967767;28;20372;-59
2022/04/19 02:03:03;;;;;;;;;;;;;;;;;;4973262;28;19914;-59
2022/04/19 02:05:28;;;;;;;;;;;;;;;;;;4964333;28;19921;-58
2022/04/19 02:07:53;;;;;;;;;;;;;;;;;;4971857;28;20024;-60
2022/04/19 02:10:19;;;;;;;;;;;;;;;;;;4951780;29;19919;-59
2022/04/19 02:12:44;;;;;;;;;;;;;;;;;;4972205;28;20296;-59
2022/04/19 02:15:10;;;;;;;;;;;;;;;;;;4967677;28;20299;-58
2022/04/19 02:17:44;;;;;;;;;;;;;;;;;;4973645;28;20004;-59
2022/04/19 02:20:09;;;;;;;;;;;;;;;;;;4972766;28;19910;-58
2022/04/19 02:22:35;;;;;;;;;;;;;;;;;;4972011;28;20232;-61
2022/04/19 02:25:00;;;;;;;;;;;;;;;;;;4975749;28;19918;-59
2022/04/19 02:27:26;;;;;;;;;;;;;;;;;;4976652;28;20083;-58
2022/04/19 02:29:52;;;;;;;;;;;;;;;;;;4968527;28;19914;-60
2022/04/19 02:32:17;;;;;;;;;;;;;;;;;;4968136;28;19937;-58
2022/04/19 02:34:42;;;;;;;;;;;;;;;;;;4972340;28;19921;-58
2022/04/19 02:37:08;;;;;;;;;;;;;;;;;;4952740;28;19918;-58
2022/04/19 02:39:33;;;;;;;;;;;;;;;;;;4971271;28;19921;-58
2022/04/19 02:41:59;;;;;;;;;;;;;;;;;;4970090;28;19921;-58
2022/04/19 02:44:24;;;;;;;;;;;;;;;;;;4972916;28;20117;-59
2022/04/19 02:46:49;;;;;;;;;;;;;;;;;;4963001;28;19922;-60
2022/04/19 02:49:15;;;;;;;;;;;;;;;;;;4971209;28;19972;-58
2022/04/19 02:51:40;;;;;;;;;;;;;;;;;;4970726;28;20559;-59
2022/04/19 02:54:05;;;;;;;;;;;;;;;;;;4964416;28;19921;-59
2022/04/19 02:56:31;;;;;;;;;;;;;;;;;;4971130;28;19914;-59
2022/04/19 02:58:56;;;;;;;;;;;;;;;;;;4973399;28;20427;-58
2022/04/19 03:01:22;;;;;;;;;;;;;;;;;;4972358;28;19910;-59
2022/04/19 03:03:47;;;;;;;;;;;;;;;;;;4972404;28;19996;-59
2022/04/19 03:06:12;;;;;;;;;;;;;;;;;;4972571;28;19914;-59
2022/04/19 03:08:38;;;;;;;;;;;;;;;;;;4972911;28;20290;-59
2022/04/19 03:11:03;;;;;;;;;;;;;;;;;;4971850;28;19918;-58
2022/04/19 03:13:31;;;;;;;;;;;;;;;;;;4975296;28;19960;-59
2022/04/19 03:15:56;;;;;;;;;;;;;;;;;;4975994;28;19917;-59
2022/04/19 03:18:22;;;;;;;;;;;;;;;;;;4973037;28;19910;-59
2022/04/19 03:20:47;;;;;;;;;;;;;;;;;;4972082;28;20439;-58
2022/04/19 03:28:41;;;;;;;;;;;;;;;;;;4972444;28;19964;-59
2022/04/19 03:31:07;;;;;;;;;;;;;;;;;;4972268;28;19913;-59
2022/04/19 03:33:32;;;;;;;;;;;;;;;;;;4971742;28;19910;-60
2022/04/19 03:35:58;;;;;;;;;;;;;;;;;;4954465;28;19910;-59
2022/04/19 03:38:23;;;;;;;;;;;;;;;;;;4972396;28;19910;-59
2022/04/19 03:40:48;;;;;;;;;;;;;;;;;;4963934;28;19950;-60
2022/04/19 03:43:14;;;;;;;;;;;;;;;;;;4963497;28;20182;-59
2022/04/19 03:45:39;;;;;;;;;;;;;;;;;;4971662;28;19921;-58
2022/04/19 03:48:05;;;;;;;;;;;;;;;;;;4971860;28;20084;-58
2022/04/19 03:50:31;;;;;;;;;;;;;;;;;;4971409;28;20001;-58
2022/04/19 03:52:57;;;;;;;;;;;;;;;;;;4965334;28;20008;-59
2022/04/19 03:55:23;;;;;;;;;;;;;;;;;;4971242;28;19980;-58
2022/04/19 03:57:48;;;;;;;;;;;;;;;;;;4948341;28;20022;-59
2022/04/19 04:00:14;;;;;;;;;;;;;;;;;;4968670;28;19922;-59
2022/04/19 04:02:39;;;;;;;;;;;;;;;;;;4972144;28;19913;-59
2022/04/19 04:05:05;;;;;;;;;;;;;;;;;;4973692;28;20399;-58
2022/04/19 04:07:30;;;;;;;;;;;;;;;;;;4963284;28;19918;-58
2022/04/19 04:09:56;;;;;;;;;;;;;;;;;;4971419;28;19972;-58
2022/04/19 04:12:21;;;;;;;;;;;;;;;;;;4970995;28;20288;-59
2022/04/19 04:14:47;;;;;;;;;;;;;;;;;;4966263;28;19926;-60
2022/04/19 04:17:12;;;;;;;;;;;;;;;;;;4970813;28;19920;-58
2022/04/19 04:19:37;;;;;;;;;;;;;;;;;;4970761;28;19914;-60
2022/04/19 04:22:03;;;;;;;;;;;;;;;;;;4967030;28;19914;-58
2022/04/19 04:24:28;;;;;;;;;;;;;;;;;;4966665;28;20274;-59
2022/04/19 04:26:54;;;;;;;;;;;;;;;;;;4971134;28;19914;-60
2022/04/19 04:29:19;;;;;;;;;;;;;;;;;;4968065;28;19917;-58
2022/04/19 04:31:44;;;;;;;;;;;;;;;;;;4970130;28;19918;-58
2022/04/19 04:34:10;;;;;;;;;;;;;;;;;;4968025;28;20021;-59
2022/04/19 04:36:35;;;;;;;;;;;;;;;;;;4966414;28;19914;-59
2022/04/19 04:39:00;;;;;;;;;;;;;;;;;;4970258;28;19914;-59
2022/04/19 04:41:26;;;;;;;;;;;;;;;;;;4970581;28;19910;-59
2022/04/19 04:43:51;;;;;;;;;;;;;;;;;;4968768;28;19925;-59
2022/04/19 04:51:44;;;;;;;;;;;;;;;;;;4969546;28;19925;-58
2022/04/19 04:54:09;;;;;;;;;;;;;;;;;;4973832;28;19918;-58
2022/04/19 04:56:35;;;;;;;;;;;;;;;;;;4970456;28;19922;-59
2022/04/19 04:59:00;;;;;;;;;;;;;;;;;;4970727;28;19914;-59
2022/04/19 05:01:25;;;;;;;;;;;;;;;;;;4968962;28;19918;-58
2022/04/19 05:03:51;;;;;;;;;;;;;;;;;;4962621;28;20294;-59
2022/04/19 05:06:16;;;;;;;;;;;;;;;;;;4967622;28;20330;-60
2022/04/19 05:08:41;;;;;;;;;;;;;;;;;;4970337;28;19910;-60
2022/04/19 05:11:06;;;;;;;;;;;;;;;;;;4965113;28;19921;-60
2022/04/19 05:13:32;;;;;;;;;;;;;;;;;;4965736;28;20442;-59
2022/04/19 05:16:00;;;;;;;;;;;;;;;;;;4969833;28;19914;-58
2022/04/19 05:18:25;;;;;;;;;;;;;;;;;;4970609;28;20502;-58
2022/04/19 05:20:51;;;;;;;;;;;;;;;;;;4969901;28;20036;-59
2022/04/19 05:23:16;;;;;;;;;;;;;;;;;;4950869;28;19992;-58
2022/04/19 05:25:41;;;;;;;;;;;;;;;;;;4952897;28;19910;-59
2022/04/19 05:28:07;;;;;;;;;;;;;;;;;;4969261;28;20013;-59
2022/04/19 05:30:32;;;;;;;;;;;;;;;;;;4969777;28;19920;-60
2022/04/19 05:32:58;;;;;;;;;;;;;;;;;;4969921;28;19953;-59
2022/04/19 05:35:23;;;;;;;;;;;;;;;;;;4967221;28;19969;-58
2022/04/19 05:37:49;;;;;;;;;;;;;;;;;;4969445;28;19933;-58
2022/04/19 05:40:14;;;;;;;;;;;;;;;;;;4968198;28;19948;-59
2022/04/19 05:42:39;;;;;;;;;;;;;;;;;;4968221;28;19968;-58
2022/04/19 05:45:05;;;;;;;;;;;;;;;;;;4969591;28;19993;-59
2022/04/19 05:47:31;;;;;;;;;;;;;;;;;;4970545;28;19964;-58
2022/04/19 05:49:56;;;;;;;;;;;;;;;;;;4962557;28;19933;-58
2022/04/19 05:52:21;;;;;;;;;;;;;;;;;;4969448;28;19910;-58
2022/04/19 05:54:47;;;;;;;;;;;;;;;;;;4969547;28;20016;-59
2022/04/19 05:57:12;;;;;;;;;;;;;;;;;;4970066;28;19910;-59
2022/04/19 05:59:37;;;;;;;;;;;;;;;;;;4968678;28;19929;-58
2022/04/19 06:04:53;;;;;;;;;;;;;;;;;;4968671;28;19969;-59
2022/04/19 06:07:21;;;;;;;;;;;;;;;;;;4965252;28;19980;-60
2022/04/19 06:09:46;;;;;;;;;;;;;;;;;;4969730;28;19910;-59
2022/04/19 06:12:12;;;;;;;;;;;;;;;;;;4961971;28;19947;-59
2022/04/19 06:14:37;;;;;;;;;;;;;;;;;;4967772;28;19921;-59
2022/04/19 06:17:03;;;;;;;;;;;;;;;;;;4967460;28;20007;-58
2022/04/19 06:19:28;;;;;;;;;;;;;;;;;;4969558;28;19910;-58
2022/04/19 06:21:55;;;;;;;;;;;;;;;;;;4966463;28;19945;-59
2022/04/19 06:24:20;;;;;;;;;;;;;;;;;;4967503;28;19945;-60
2022/04/19 06:26:45;;;;;;;;;;;;;;;;;;4969713;28;20009;-59
2022/04/19 06:29:11;;;;;;;;;;;;;;;;;;4969636;28;20248;-59
2022/04/19 06:31:36;;;;;;;;;;;;;;;;;;4972359;28;19937;-59
2022/04/19 06:34:02;;;;;;;;;;;;;;;;;;4976753;28;20300;-59
2022/04/19 06:36:27;;;;;;;;;;;;;;;;;;4970583;28;20036;-59
2022/04/19 06:38:52;;;;;;;;;;;;;;;;;;4970339;28;19980;-60
2022/04/19 06:41:18;;;;;;;;;;;;;;;;;;4971658;28;19914;-58
2022/04/19 06:43:43;;;;;;;;;;;;;;;;;;4971936;28;19916;-58
2022/04/19 06:46:09;;;;;;;;;;;;;;;;;;4967276;28;20451;-59
2022/04/19 06:48:34;;;;;;;;;;;;;;;;;;4973317;28;19910;-59
2022/04/19 06:51:00;;;;;;;;;;;;;;;;;;4966775;28;19918;-59
2022/04/19 06:53:29;;;;;;;;;;;;;;;;;;4964891;28;20450;-59
2022/04/19 06:55:55;;;;;;;;;;;;;;;;;;4972334;28;20393;-59
2022/04/19 06:58:20;;;;;;;;;;;;;;;;;;4972812;28;20019;-59
2022/04/19 07:00:46;;;;;;;;;;;;;;;;;;4971853;28;19933;-59
2022/04/19 07:03:11;;;;;;;;;;;;;;;;;;4970665;28;20315;-59
2022/04/19 07:05:36;;;;;;;;;;;;;;;;;;4970296;28;19984;-60
2022/04/19 07:08:04;;;;;;;;;;;;;;;;;;4966924;28;19914;-59
2022/04/19 07:10:30;;;;;;;;;;;;;;;;;;4972285;28;19945;-59
2022/04/19 07:12:55;;;;;;;;;;;;;;;;;;4972632;28;20327;-60
2022/04/19 07:15:21;;;;;;;;;;;;;;;;;;4971848;28;19910;-58
2022/04/19 07:17:46;;;;;;;;;;;;;;;;;;4972899;28;19945;-58
2022/04/19 07:28:23;;;;;;;;;;;;;;;;;;4972244;28;20065;-59
2022/04/19 07:30:49;;;;;;;;;;;;;;;;;;4960866;28;20008;-60
2022/04/19 07:33:16;;;;;;;;;;;;;;;;;;4969723;28;19921;-58
2022/04/19 07:35:41;;;;;;;;;;;;;;;;;;4969078;28;20422;-59
2022/04/19 07:38:07;;;;;;;;;;;;;;;;;;4962698;28;19954;-59
2022/04/19 07:40:33;;;;;;;;;;;;;;;;;;4970567;28;20364;-59
2022/04/19 07:42:58;;;;;;;;;;;;;;;;;;4969377;28;19941;-59
2022/04/19 07:45:24;;;;;;;;;;;;;;;;;;4971048;28;19953;-59
2022/04/19 07:47:49;;;;;;;;;;;;;;;;;;4967903;28;20028;-58
2022/04/19 07:50:14;;;;;;;;;;;;;;;;;;4965746;28;19930;-58
2022/04/19 07:52:39;;;;;;;;;;;;;;;;;;4970156;28;19930;-59
2022/04/19 07:55:05;;;;;;;;;;;;;;;;;;4964289;28;20103;-59
2022/04/19 07:57:30;;;;;;;;;;;;;;;;;;4969312;28;19929;-58
2022/04/19 07:59:56;;;;;;;;;;;;;;;;;;4972088;28;19964;-58
2022/04/19 08:02:21;;;;;;;;;;;;;;;;;;4966210;28;19914;-58
2022/04/19 08:04:46;;;;;;;;;;;;;;;;;;4965469;28;20443;-59
2022/04/19 08:07:12;;;;;;;;;;;;;;;;;;4971681;28;19914;-58
2022/04/19 08:09:37;;;;;;;;;;;;;;;;;;4971339;28;20299;-58
2022/04/19 08:12:03;;;;;;;;;;;;;;;;;;4969502;28;19947;-58
2022/04/19 08:14:28;;;;;;;;;;;;;;;;;;4974861;28;19961;-59
2022/04/19 08:16:53;;;;;;;;;;;;;;;;;;4971690;28;20436;-58
2022/04/19 08:19:18;;;;;;;;;;;;;;;;;;4965298;28;19928;-59
2022/04/19 08:21:44;;;;;;;;;;;;;;;;;;4970763;28;19968;-59
2022/04/19 08:24:09;;;;;;;;;;;;;;;;;;4970143;28;20378;-59
2022/04/19 08:26:35;;;;;;;;;;;;;;;;;;4969793;28;19922;-58
2022/04/19 08:29:00;;;;;;;;;;;;;;;;;;4969110;28;19918;-59
2022/04/19 08:31:26;;;;;;;;;;;;;;;;;;4967216;28;19956;-58
2022/04/19 08:33:51;;;;;;;;;;;;;;;;;;4970676;28;19910;-59
2022/04/19 08:36:17;;;;;;;;;;;;;;;;;;4969752;28;19914;-59
2022/04/19 08:38:42;;;;;;;;;;;;;;;;;;4971086;28;19973;-59
2022/04/19 08:41:07;;;;;;;;;;;;;;;;;;4971328;28;19936;-59
2022/04/19 08:43:34;;;;;;;;;;;;;;;;;;4966601;28;19983;-58
2022/04/19 08:46:00;;;;;;;;;;;;;;;;;;4969172;28;20387;-59
2022/04/19 08:48:26;;;;;;;;;;;;;;;;;;4968606;28;20368;-59
2022/04/19 08:50:53;;;;;;;;;;;;;;;;;;4970646;28;20126;-59
2022/04/19 08:58:46;;;;;;;;;;;;;;;;;;4967629;28;19929;-58
2022/04/19 09:01:11;;;;;;;;;;;;;;;;;;4967749;28;19910;-58
2022/04/19 09:03:37;;;;;;;;;;;;;;;;;;4972482;28;19921;-58
2022/04/19 09:06:03;;;;;;;;;;;;;;;;;;4969350;28;20016;-58
2022/04/19 09:08:29;;;;;;;;;;;;;;;;;;4969925;28;19918;-59
2022/04/19 09:11:05;;;;;;;;;;;;;;;;;;4966395;28;20442;-57
2022/04/19 09:13:30;;;;;;;;;;;;;;;;;;4950621;28;20365;-61
2022/04/19 09:16:02;;;;;;;;;;;;;;;;;;4968460;28;19922;-59
2022/04/19 09:18:29;;;;;;;;;;;;;;;;;;4970815;28;20548;-59
2022/04/19 09:20:56;;;;;;;;;;;;;;;;;;4969443;28;20376;-59
2022/04/19 09:23:22;;;;;;;;;;;;;;;;;;4969208;28;20340;-58
2022/04/19 09:25:53;;;;;;;;;;;;;;;;;;4969793;28;19913;-59
2022/04/19 09:28:21;;;;;;;;;;;;;;;;;;4970853;28;19914;-60
2022/04/19 09:30:48;;;;;;;;;;;;;;;;;;4969176;28;19914;-60
2022/04/19 09:33:18;;;;;;;;;;;;;;;;;;4969259;28;20043;-60
2022/04/19 09:35:44;;;;;;;;;;;;;;;;;;4970014;28;19920;-59
2022/04/19 09:38:09;;;;;;;;;;;;;;;;;;4967233;28;19914;-59
2022/04/19 09:40:39;;;;;;;;;;;;;;;;;;4962536;28;20299;-59
2022/04/19 09:43:10;;;;;;;;;;;;;;;;;;4969707;28;19937;-59
2022/04/19 09:45:51;;;;;;;;;;;;;;;;;;4963254;28;20009;-59
2022/04/19 09:48:20;;;;;;;;;;;;;;;;;;4967624;28;20027;-58
2022/04/19 09:50:49;;;;;;;;;;;;;;;;;;4952809;28;19925;-58
2022/04/19 09:53:19;;;;;;;;;;;;;;;;;;4973963;28;20295;-59
2022/04/19 09:55:48;;;;;;;;;;;;;;;;;;4967863;28;19914;-59
2022/04/19 09:58:14;;;;;;;;;;;;;;;;;;4963963;28;19969;-58
2022/04/19 10:00:40;;;;;;;;;;;;;;;;;;4969296;28;19913;-58
2022/04/19 10:08:36;;;;;;;;;;;;;;;;;;4969084;28;19968;-59
2022/04/19 10:11:01;;;;;;;;;;;;;;;;;;4974194;28;19910;-59
2022/04/19 10:13:28;;;;;;;;;;;;;;;;;;4968140;28;19914;-59
2022/04/19 10:15:53;;;;;;;;;;;;;;;;;;4952754;28;19962;-59
2022/04/19 10:18:18;;;;;;;;;;;;;;;;;;4971662;28;20347;-59
2022/04/19 10:20:55;;;;;;;;;;;;;;;;;;4967898;28;20299;-58
2022/04/19 10:23:21;;;;;;;;;;;;;;;;;;4973143;28;20355;-59
2022/04/19 10:25:48;;;;;;;;;;;;;;;;;;4967746;28;19914;-59
2022/04/19 10:28:34;;;;;;;;;;;;;;;;;;4955776;28;19918;-59
2022/04/19 10:30:59;;;;;;;;;;;;;;;;;;4965855;28;20005;-59
2022/04/19 10:33:49;;;;;;;;;;;;;;;;;;4955139;28;19997;-59
2022/04/19 10:36:16;;;;;;;;;;;;;;;;;;4972915;28;19961;-60
2022/04/19 10:38:42;;;;;;;;;;;;;;;;;;4969534;28;19932;-59
2022/04/19 10:41:08;;;;;;;;;;;;;;;;;;4974941;28;20004;-59
2022/04/19 10:43:33;;;;;;;;;;;;;;;;;;4971521;28;19993;-59
2022/04/19 10:46:16;;;;;;;;;;;;;;;;;;4972765;28;19936;-59
2022/04/19 10:49:00;;;;;;;;;;;;;;;;;;4971514;28;19965;-59
2022/04/19 10:51:28;;;;;;;;;;;;;;;;;;4972318;28;19914;-59
2022/04/19 10:53:54;;;;;;;;;;;;;;;;;;4971151;28;19922;-58
2022/04/19 10:56:19;;;;;;;;;;;;;;;;;;4972113;28;19960;-58
2022/04/19 10:58:44;;;;;;;;;;;;;;;;;;4973135;28;19973;-59
2022/04/19 11:01:30;;;;;;;;;;;;;;;;;;4954560;28;20478;-59
2022/04/19 11:03:56;;;;;;;;;;;;;;;;;;4966215;28;19921;-60
2022/04/19 11:06:35;;;;;;;;;;;;;;;;;;4972779;28;20259;-60
2022/04/19 11:09:05;;;;;;;;;;;;;;;;;;4966936;28;20427;-59
2022/04/19 11:11:43;;;;;;;;;;;;;;;;;;4966761;28;20139;-60
2022/04/19 11:14:26;;;;;;;;;;;;;;;;;;4966069;28;20360;-61
2022/04/19 11:17:12;;;;;;;;;;;;;;;;;;4973153;28;20000;-60
2022/04/19 11:19:37;;;;;;;;;;;;;;;;;;4970606;28;19914;-60
2022/04/19 11:22:02;;;;;;;;;;;;;;;;;;4970356;28;19949;-60
2022/04/19 11:24:47;;;;;;;;;;;;;;;;;;4956429;28;19957;-61
2022/04/19 11:27:12;;;;;;;;;;;;;;;;;;4970755;28;20368;-60
2022/04/19 11:29:47;;;;;;;;;;;;;;;;;;4970261;28;19920;-59
2022/04/19 11:32:18;;;;;;;;;;;;;;;;;;4974957;28;20000;-59
2022/04/19 11:34:55;;;;;;;;;;;;;;;;;;4975000;28;19937;-60
2022/04/19 11:37:21;;;;;;;;;;;;;;;;;;4969686;28;19933;-60
2022/04/19 11:48:00;;;;;;;;;;;;;;;;;;4970963;28;19929;-59
2022/04/19 11:50:26;;;;;;;;;;;;;;;;;;4965636;28;19914;-59
2022/04/19 11:52:51;;;;;;;;;;;;;;;;;;4970189;28;20337;-60
2022/04/19 11:55:16;;;;;;;;;;;;;;;;;;4956267;28;20224;-61
2022/04/19 11:57:42;;;;;;;;;;;;;;;;;;4966593;28;20316;-61
2022/04/19 12:00:07;;;;;;;;;;;;;;;;;;4971887;28;19910;-60
2022/04/19 12:02:36;;;;;;;;;;;;;;;;;;4969102;28;19914;-61
2022/04/19 12:05:05;;;;;;;;;;;;;;;;;;4969925;28;20372;-61
2022/04/19 12:07:30;;;;;;;;;;;;;;;;;;4971802;28;20384;-61
2022/04/19 12:09:57;;;;;;;;;;;;;;;;;;4968309;28;19924;-61
2022/04/19 12:12:22;;;;;;;;;;;;;;;;;;4950949;28;19914;-60
2022/04/19 12:14:52;;;;;;;;;;;;;;;;;;4971063;28;19921;-61
2022/04/19 12:17:22;;;;;;;;;;;;;;;;;;4971427;28;19921;-60
2022/04/19 12:19:47;;;;;;;;;;;;;;;;;;4970807;28;19921;-61
2022/04/19 12:22:19;;;;;;;;;;;;;;;;;;4974038;28;20236;-61
2022/04/19 12:24:55;;;;;;;;;;;;;;;;;;4973494;28;19922;-61
2022/04/19 12:27:27;;;;;;;;;;;;;;;;;;4968111;28;19922;-61
2022/04/19 12:29:54;;;;;;;;;;;;;;;;;;4964961;28;19945;-61
2022/04/19 12:32:19;;;;;;;;;;;;;;;;;;4970459;28;19910;-60
2022/04/19 12:34:45;;;;;;;;;;;;;;;;;;4964000;28;19929;-61
2022/04/19 12:37:17;;;;;;;;;;;;;;;;;;4971145;28;19973;-61
2022/04/19 12:39:59;;;;;;;;;;;;;;;;;;4953712;28;20013;-62
2022/04/19 12:42:25;;;;;;;;;;;;;;;;;;4969123;28;19948;-61
2022/04/19 12:45:02;;;;;;;;;;;;;;;;;;4967795;28;20009;-61
2022/04/19 12:47:27;;;;;;;;;;;;;;;;;;4969728;28;19945;-61
2022/04/19 12:49:54;;;;;;;;;;;;;;;;;;4970629;28;19992;-60
2022/04/19 12:52:19;;;;;;;;;;;;;;;;;;4963391;28;20048;-62
2022/04/19 12:54:50;;;;;;;;;;;;;;;;;;4967181;28;20017;-61
2022/04/19 12:57:23;;;;;;;;;;;;;;;;;;4970776;28;19917;-62
2022/04/19 12:59:49;;;;;;;;;;;;;;;;;;4970547;28;19914;-61
2022/04/19 13:02:16;;;;;;;;;;;;;;;;;;4968870;28;19914;-60
2022/04/19 13:04:42;;;;;;;;;;;;;;;;;;4969967;28;19957;-60
2022/04/19 13:12:35;;;;;;;;;;;;;;;;;;4972380;28;19992;-60
2022/04/19 13:15:03;;;;;;;;;;;;;;;;;;4972187;28;19981;-60
2022/04/19 13:17:30;;;;;;;;;;;;;;;;;;4968690;28;20008;-60
2022/04/19 13:19:56;;;;;;;;;;;;;;;;;;4970005;28;20386;-60
2022/04/19 13:22:21;;;;;;;;;;;;;;;;;;4970167;28;19910;-60
2022/04/19 13:24:46;;;;;;;;;;;;;;;;;;4968568;28;19937;-61
2022/04/19 13:27:12;;;;;;;;;;;;;;;;;;4968179;28;20347;-60
2022/04/19 13:29:38;;;;;;;;;;;;;;;;;;4968154;28;20291;-60
2022/04/19 13:32:04;;;;;;;;;;;;;;;;;;4964116;28;19910;-61
2022/04/19 13:34:30;;;;;;;;;;;;;;;;;;4959318;28;19934;-61
2022/04/19 13:36:56;;;;;;;;;;;;;;;;;;4970147;28;19914;-60
2022/04/19 13:39:21;;;;;;;;;;;;;;;;;;4972896;28;19921;-60
2022/04/19 13:41:47;;;;;;;;;;;;;;;;;;4972479;28;19914;-60
2022/04/19 13:44:12;;;;;;;;;;;;;;;;;;4968743;28;19918;-60
2022/04/19 13:46:38;;;;;;;;;;;;;;;;;;4972286;28;19921;-60
2022/04/19 13:49:03;;;;;;;;;;;;;;;;;;4970672;28;19914;-60
2022/04/19 13:51:29;;;;;;;;;;;;;;;;;;4970698;28;19914;-60
2022/04/19 13:53:54;;;;;;;;;;;;;;;;;;4973824;28;19910;-60
2022/04/19 13:56:20;;;;;;;;;;;;;;;;;;4971039;28;19921;-60
2022/04/19 13:58:45;;;;;;;;;;;;;;;;;;4973786;28;19966;-59
2022/04/19 14:01:11;;;;;;;;;;;;;;;;;;4973247;28;19984;-62
2022/04/19 14:03:36;;;;;;;;;;;;;;;;;;4977993;28;20032;-61
2022/04/19 14:06:01;;;;;;;;;;;;;;;;;;4967330;28;20004;-61
2022/04/19 14:08:27;;;;;;;;;;;;;;;;;;4955735;28;19993;-60
2022/04/19 14:10:52;;;;;;;;;;;;;;;;;;4973101;28;19914;-61
2022/04/19 14:13:17;;;;;;;;;;;;;;;;;;4973053;28;19914;-61
2022/04/19 14:15:43;;;;;;;;;;;;;;;;;;4969410;28;19969;-60
2022/04/19 14:18:08;;;;;;;;;;;;;;;;;;4973666;28;20012;-61
2022/04/19 14:20:34;;;;;;;;;;;;;;;;;;4973456;28;19973;-61
2022/04/19 14:22:59;;;;;;;;;;;;;;;;;;4972863;28;19910;-61
2022/04/19 14:25:26;;;;;;;;;;;;;;;;;;4968811;28;19914;-61
2022/04/19 14:27:51;;;;;;;;;;;;;;;;;;4973627;28;19914;-61
2022/04/19 14:33:16;;;;;;;;;;;;;;;;;;4970574;28;19925;-61
2022/04/19 14:35:42;;;;;;;;;;;;;;;;;;4969057;28;20280;-64
2022/04/19 14:38:07;;;;;;;;;;;;;;;;;;4973469;28;19945;-61
2022/04/19 14:40:33;;;;;;;;;;;;;;;;;;4972830;28;20384;-61
2022/04/19 14:42:58;;;;;;;;;;;;;;;;;;4970198;28;19918;-61
2022/04/19 14:45:23;;;;;;;;;;;;;;;;;;4965811;28;19910;-61
2022/04/19 14:47:48;;;;;;;;;;;;;;;;;;4971923;28;19965;-61
2022/04/19 14:50:14;;;;;;;;;;;;;;;;;;4972145;28;19953;-61
2022/04/19 14:52:40;;;;;;;;;;;;;;;;;;4973060;28;19914;-61
2022/04/19 14:55:06;;;;;;;;;;;;;;;;;;4976190;28;19909;-62
2022/04/19 14:57:31;;;;;;;;;;;;;;;;;;4971694;28;20344;-61
2022/04/19 14:59:56;;;;;;;;;;;;;;;;;;4970360;28;20004;-62
2022/04/19 15:02:22;;;;;;;;;;;;;;;;;;4972208;28;20427;-62
2022/04/19 15:04:47;;;;;;;;;;;;;;;;;;4964443;28;19996;-60
2022/04/19 15:07:13;;;;;;;;;;;;;;;;;;4972705;28;20039;-61
2022/04/19 15:09:39;;;;;;;;;;;;;;;;;;4970657;28;19964;-60
2022/04/19 15:12:05;;;;;;;;;;;;;;;;;;4971393;28;20021;-60
2022/04/19 15:14:31;;;;;;;;;;;;;;;;;;4970106;28;20415;-61
2022/04/19 15:16:59;;;;;;;;;;;;;;;;;;4971974;28;19917;-61
2022/04/19 15:19:25;;;;;;;;;;;;;;;;;;4972037;28;19914;-61
2022/04/19 15:21:50;;;;;;;;;;;;;;;;;;4971674;28;19913;-61
2022/04/19 15:24:15;;;;;;;;;;;;;;;;;;4969382;28;19936;-60
2022/04/19 15:26:45;;;;;;;;;;;;;;;;;;4972335;28;20009;-59
2022/04/19 15:29:10;;;;;;;;;;;;;;;;;;4970852;28;19917;-60
2022/04/19 15:31:36;;;;;;;;;;;;;;;;;;4969158;28;20770;-60
2022/04/19 15:34:02;;;;;;;;;;;;;;;;;;4972061;28;19973;-60
2022/04/19 15:36:28;;;;;;;;;;;;;;;;;;4969399;28;19921;-60
2022/04/19 15:38:54;;;;;;;;;;;;;;;;;;4969332;28;20308;-61
2022/04/19 15:41:19;;;;;;;;;;;;;;;;;;4955415;28;19909;-60
2022/04/19 15:43:44;;;;;;;;;;;;;;;;;;4972260;28;19929;-60
2022/04/19 15:46:10;;;;;;;;;;;;;;;;;;4971746;28;19924;-60
2022/04/19 15:48:35;;;;;;;;;;;;;;;;;;4968292;28;20467;-60
2022/04/19 15:51:01;;;;;;;;;;;;;;;;;;4971668;28;19953;-61
2022/04/19 15:53:27;;;;;;;;;;;;;;;;;;4964019;28;20048;-61
2022/04/19 15:55:52;;;;;;;;;;;;;;;;;;4971241;28;19920;-61
2022/04/19 15:58:17;;;;;;;;;;;;;;;;;;4972310;28;20000;-61
2022/04/19 16:00:43;;;;;;;;;;;;;;;;;;4965905;28;20390;-62
2022/04/19 16:03:09;;;;;;;;;;;;;;;;;;4967970;28;19914;-62
2022/04/19 16:05:34;;;;;;;;;;;;;;;;;;4970952;28;19916;-61
2022/04/19 16:07:59;;;;;;;;;;;;;;;;;;4970735;28;20383;-62
2022/04/19 16:10:26;;;;;;;;;;;;;;;;;;4965793;28;19914;-60
2022/04/19 16:12:55;;;;;;;;;;;;;;;;;;4971216;28;19914;-61
2022/04/19 16:15:21;;;;;;;;;;;;;;;;;;4971561;28;19920;-61
2022/04/19 16:23:21;;;;;;;;;;;;;;;;;;5047400;28;20282;-60
2022/04/19 16:25:53;;;;;;;;;;;;;;;;;;5043317;28;19917;-60
2022/04/19 16:28:23;;;;;;;;;;;;;;;;;;5043048;28;19932;-60
2022/04/19 16:30:49;;;;;;;;;;;;;;;;;;5043523;28;19919;-59
2022/04/19 16:33:15;;;;;;;;;;;;;;;;;;5044391;28;19917;-59
2022/04/19 16:35:40;;;;;;;;;;;;;;;;;;5042426;28;19956;-59
2022/04/19 16:38:05;;;;;;;;;;;;;;;;;;5040705;28;20006;-60
2022/04/19 16:40:31;;;;;;;;;;;;;;;;;;5042318;28;20366;-60
2022/04/19 16:42:56;;;;;;;;;;;;;;;;;;5039879;28;19932;-59
2022/04/19 16:45:22;;;;;;;;;;;;;;;;;;5042358;28;19997;-61
2022/04/19 16:47:47;;;;;;;;;;;;;;;;;;5041189;28;20500;-59
2022/04/19 16:50:14;;;;;;;;;;;;;;;;;;5040000;28;19917;-61
2022/04/19 16:52:42;;;;;;;;;;;;;;;;;;5041302;28;19917;-61
2022/04/19 16:55:08;;;;;;;;;;;;;;;;;;5042307;28;19920;-61
2022/04/19 16:57:33;;;;;;;;;;;;;;;;;;5042732;28;19947;-60
2022/04/19 16:59:59;;;;;;;;;;;;;;;;;;5045869;28;19917;-60
2022/04/19 17:02:25;;;;;;;;;;;;;;;;;;5044553;28;19925;-59
2022/04/19 17:04:52;;;;;;;;;;;;;;;;;;5044856;28;19925;-59
2022/04/19 17:07:18;;;;;;;;;;;;;;;;;;5044256;28;19917;-60
2022/04/19 17:09:43;;;;;;;;;;;;;;;;;;5048753;28;19968;-60
2022/04/19 17:12:09;;;;;;;;;;;;;;;;;;5038705;28;19918;-60
2022/04/19 17:14:34;;;;;;;;;;;;;;;;;;5040518;28;20375;-60
2022/04/19 17:17:00;;;;;;;;;;;;;;;;;;5043848;28;20482;-60
2022/04/19 17:19:26;;;;;;;;;;;;;;;;;;5046842;28;19961;-59
2022/04/19 17:21:51;;;;;;;;;;;;;;;;;;5041787;28;19948;-60
2022/04/19 17:24:16;;;;;;;;;;;;;;;;;;5041479;28;20398;-61
2022/04/19 17:26:41;;;;;;;;;;;;;;;;;;5041627;28;19924;-59
2022/04/19 17:29:07;;;;;;;;;;;;;;;;;;5038726;28;19917;-60
2022/04/19 17:31:33;;;;;;;;;;;;;;;;;;5030435;28;20019;-61
2022/04/19 17:33:58;;;;;;;;;;;;;;;;;;5028972;28;19919;-59
2022/04/19 17:36:23;;;;;;;;;;;;;;;;;;5029087;28;19917;-59
2022/04/19 17:38:49;;;;;;;;;;;;;;;;;;5028478;28;19968;-60